Ashland, Missouri
Current Conditions -  °F | °C
As of 11:54 AM on Saturday 25 Oct 2014 (Local Time) from KCOU Reporting Station
Clear Clear  
Wind Chill: 71°   Ceiling: Unl
Heat Index: 71°   Visibility: 10mi
Dew Point: 63°   Wind: 0mph
Humidity: 75%   Direction: NA
Pressure: 30.08"   Gusts: NA
Location:  38.77°N, 92.26°W
Report Text: KCOU 251654Z 00000KT 10SM CLR 22/17 A3008 RMK AO2 SLP180 T02170172 $
Loading
Personal Weather Stations






























Interactive Weather Map New forecast layout! Learn more

10-Day Weather Forecast

Advertisements
Track Severe Weather on mobile